This is the latest recevied weather packets stored in our database for station/object KB9HGI-1. If no packets are shown the sender has not sent any weather packets the latest 10 day(s).
| Time | Temp. | Humidity | Pressure | Rain* | Wind** | Luminosity | Snow |
|---|---|---|---|---|---|---|---|
| 1777290651 | 17.22° C | 92% | 1001 hPa | 0.51 mm | - | 0 W/m² | - |
| 1777290050 | 17.22° C | 92% | 1001.4 hPa | 0 mm | - | 0 W/m² | - |
| 1777287617 | 17.22° C | 90% | 1001.4 hPa | 0 mm | - | 0 W/m² | - |
| 1777286384 | 17.22° C | 90% | 1001.7 hPa | 0 mm | - | 0 W/m² | - |
| 1777277913 | 18.33° C | 86% | 1003.7 hPa | 0.76 mm | - | 0 W/m² | - |
| 1777277312 | 18.33° C | 86% | 1004.1 hPa | 0.76 mm | - | 0 W/m² | - |
| 1777274278 | 18.89° C | 80% | 1002.7 hPa | 0 mm | - | 0 W/m² | - |
| 1777268779 | 18.33° C | 85% | 1004.1 hPa | 0.25 mm | - | 0 W/m² | - |
| 1777259137 | 21.11° C | 67% | 1007.5 hPa | 0.25 mm | - | 0 W/m² | - |
| 1777254239 | 22.78° C | 57% | 1006.8 hPa | 0 mm | - | 0 W/m² | - |
| 1777251837 | 23.33° C | 53% | 1007.1 hPa | 0 mm | - | 0 W/m² | - |
| 1777251236 | 23.89° C | 52% | 1007.5 hPa | 0 mm | - | 0 W/m² | - |
| 1777250635 | 23.89° C | 52% | 1007.5 hPa | 0 mm | - | 0 W/m² | - |
| 1777248233 | 24.44° C | 50% | 1006.4 hPa | 0 mm | - | 28 W/m² | - |
| 1777245799 | 25° C | 48% | 1006.1 hPa | 0 mm | - | 86 W/m² | - |
| 1777245199 | 25° C | 46% | 1006.4 hPa | 0 mm | - | 102 W/m² | - |
| 1777242196 | 25.56° C | 44% | 1006.4 hPa | 0 mm | - | 225 W/m² | - |
| 1777240963 | 26.11° C | 45% | 1006.1 hPa | 0 mm | - | 306 W/m² | - |
| 1777240363 | 26.11° C | 44% | 1006.4 hPa | 0 mm | - | 334 W/m² | - |
| 1777238561 | 26.11° C | 46% | 1006.8 hPa | 0 mm | - | 376 W/m² | - |
| 1777234325 | 26.11° C | 47% | 1007.8 hPa | 0 mm | - | 366 W/m² | - |
| 1777231321 | 26.67° C | 47% | 1008.1 hPa | 0 mm | - | 526 W/m² | - |
| 1777229519 | 26.67° C | 47% | 1008.5 hPa | 0 mm | - | 998 W/m² | - |
| 1777225853 | 25° C | 52% | 1009.5 hPa | 0 mm | - | 969 W/m² | - |
| 1777225253 | 25° C | 51% | 1009.5 hPa | 0 mm | - | 969 W/m² | - |
* Rain latest hour (hover to see other rain measurements)
** Current wind speed in m/s (hover to see current wind gust speed)